Time;durP1;ratioP1;P1;durP2;ratioP2;P2;SDS_P1;SDS_P2;PMS_P1;PMS_P2;Temp;Humidity;BMP_temperature;BMP_pressure;BME280_temperature;BME280_humidity;BME280_pressure;Samples;Min_cycle;Max_cycle;Signal;HPM_P1;HPM_P2
2024/04/03 00:00:43;;;;;;;2.63;2.43;;;10.50;99.90;;;;;;6254691;23;20488;-85
2024/04/03 00:03:09;;;;;;;2.90;2.13;;;10.60;1.00;;;;;;6253369;23;20380;-84
2024/04/03 00:05:36;;;;;;;2.10;2.00;;;10.50;99.90;;;;;;6252835;23;20414;-84
2024/04/03 00:08:02;;;;;;;3.27;2.37;;;10.50;99.90;;;;;;6252785;22;20975;-84
2024/04/03 00:10:29;;;;;;;2.87;2.67;;;10.50;99.90;;;;;;6253361;23;20418;-84
2024/04/03 00:12:55;;;;;;;2.63;2.10;;;10.50;99.90;;;;;;6255577;23;20379;-84
2024/04/03 00:15:22;;;;;;;3.40;3.10;;;10.50;99.90;;;;;;6253656;23;20408;-84
2024/04/03 00:17:50;;;;;;;2.83;2.63;;;10.60;99.90;;;;;;6253816;22;20425;-84
2024/04/03 00:20:17;;;;;;;2.90;2.60;;;10.60;99.90;;;;;;6252866;23;20409;-84
2024/04/03 00:22:43;;;;;;;2.33;2.13;;;10.60;99.90;;;;;;6253940;23;20927;-83
2024/04/03 00:25:10;;;;;;;3.53;2.80;;;10.70;99.90;;;;;;6253442;23;20802;-84
2024/04/03 00:27:36;;;;;;;2.63;2.43;;;10.70;99.90;;;;;;6254655;22;20411;-84
2024/04/03 00:30:03;;;;;;;3.53;2.40;;;10.60;99.90;;;;;;6262427;23;20399;-82
2024/04/03 00:32:29;;;;;;;3.10;2.80;;;10.60;99.90;;;;;;6272036;23;20376;-82
2024/04/03 00:34:58;;;;;;;2.60;2.40;;;10.60;99.90;;;;;;6272548;23;20384;-82
2024/04/03 00:37:24;;;;;;;3.07;2.63;;;10.60;99.90;;;;;;6258229;22;20372;-83
2024/04/03 00:39:53;;;;;;;4.13;2.70;;;10.60;99.90;;;;;;6255603;23;20387;-83
2024/04/03 00:42:19;;;;;;;4.73;2.60;;;10.50;99.90;;;;;;6255036;23;20411;-84
2024/04/03 00:44:49;;;;;;;2.87;2.67;;;10.50;99.90;;;;;;6253893;23;20376;-83
2024/04/03 00:47:15;;;;;;;3.90;2.90;;;10.50;99.90;;;;;;6255664;23;20386;-83
2024/04/03 00:49:43;;;;;;;3.27;2.33;;;10.50;99.90;;;;;;6253784;22;20407;-84
2024/04/03 00:52:10;;;;;;;4.73;3.30;;;10.60;99.90;;;;;;6265045;23;20380;-82
2024/04/03 00:54:38;;;;;;;4.47;2.50;;;10.50;99.90;;;;;;6270381;23;20445;-82
2024/04/03 00:57:04;;;;;;;4.13;3.83;;;10.50;99.90;;;;;;6262572;23;20376;-84
2024/04/03 00:59:31;;;;;;;3.77;3.40;;;10.50;99.90;;;;;;6253400;22;20427;-84
2024/04/03 01:01:58;;;;;;;3.20;3.00;;;10.50;99.90;;;;;;6267547;22;20360;-82
2024/04/03 01:04:24;;;;;;;3.33;3.03;;;10.50;99.90;;;;;;6276399;22;20398;-83
2024/04/03 01:06:50;;;;;;;5.50;3.07;;;10.50;99.90;;;;;;6275238;22;20376;-83
2024/04/03 01:09:19;;;;;;;3.60;3.30;;;10.60;99.90;;;;;;6257770;22;20399;-82
2024/04/03 01:11:46;;;;;;;3.70;3.40;;;10.50;99.90;;;;;;6258188;23;20436;-83
2024/04/03 01:14:13;;;;;;;5.03;3.40;;;10.60;99.90;;;;;;6253009;23;20375;-83
2024/04/03 01:16:42;;;;;;;5.00;3.20;;;10.60;99.90;;;;;;6253368;23;20387;-83
2024/04/03 01:19:09;;;;;;;3.33;2.93;;;10.60;99.90;;;;;;6253411;22;20471;-83
2024/04/03 01:21:35;;;;;;;3.17;2.93;;;10.60;99.90;;;;;;6253493;23;20379;-83
2024/04/03 01:24:03;;;;;;;4.67;4.03;;;10.60;99.90;;;;;;6254391;23;20874;-83
2024/04/03 01:26:30;;;;;;;3.63;3.33;;;10.60;99.90;;;;;;6259916;23;20178;-83
2024/04/03 01:28:57;;;;;;;3.50;3.30;;;10.60;99.90;;;;;;6273919;22;20494;-82
2024/04/03 01:31:22;;;;;;;4.40;4.00;;;10.60;99.90;;;;;;6275111;22;20432;-81
2024/04/03 01:33:49;;;;;;;5.73;3.53;;;10.40;99.90;;;;;;6272422;23;20897;-83
2024/04/03 01:36:16;;;;;;;5.37;4.00;;;10.30;1.00;;;;;;6269044;23;20401;-83
2024/04/03 01:38:43;;;;;;;6.23;4.07;;;10.10;99.90;;;;;;6264357;22;20432;-83
2024/04/03 01:41:13;;;;;;;4.23;3.87;;;10.10;1.00;;;;;;6269555;23;20397;-82
2024/04/03 01:43:39;;;;;;;5.83;4.80;;;10.00;1.00;;;;;;6270999;23;20384;-82
2024/04/03 01:46:05;;;;;;;6.07;4.60;;;10.00;77.30;;;;;;6268244;23;20420;-83
2024/04/03 01:48:32;;;;;;;5.07;4.13;;;10.00;99.90;;;;;;6259036;22;20474;-83
2024/04/03 01:50:58;;;;;;;9.63;5.07;;;10.00;99.90;;;;;;6254328;23;20442;-83
2024/04/03 01:53:25;;;;;;;4.57;4.17;;;10.10;99.90;;;;;;6253873;23;20714;-83
2024/04/03 01:55:55;;;;;;;6.27;4.00;;;10.10;99.90;;;;;;6252118;23;20432;-83
2024/04/03 01:58:24;;;;;;;6.03;4.33;;;10.10;1.00;;;;;;6255930;22;20731;-83
2024/04/03 02:00:50;;;;;;;5.20;4.23;;;10.10;1.00;;;;;;6253303;23;20714;-83
2024/04/03 02:03:18;;;;;;;5.17;4.53;;;10.10;99.90;;;;;;6257623;23;20419;-82
2024/04/03 02:05:44;;;;;;;6.00;4.63;;;10.20;99.90;;;;;;6255169;23;20437;-82
2024/04/03 02:08:12;;;;;;;5.20;4.67;;;10.20;99.90;;;;;;6252693;22;20403;-83
2024/04/03 02:10:38;;;;;;;5.23;4.40;;;10.30;99.90;;;;;;6251646;23;20412;-83
2024/04/03 02:13:05;;;;;;;5.27;4.73;;;10.30;91.40;;;;;;6251753;23;20399;-84
2024/04/03 02:15:32;;;;;;;7.40;4.47;;;10.30;5.70;;;;;;6253232;23;20414;-84
2024/04/03 02:18:00;;;;;;;5.93;4.63;;;10.30;1.00;;;;;;6253567;22;20399;-84
2024/04/03 02:20:25;;;;;;;5.30;4.83;;;10.30;1.00;;;;;;6262870;23;20403;-83
2024/04/03 02:22:53;;;;;;;8.00;4.70;;;10.30;1.00;;;;;;6269398;23;20444;-84
2024/04/03 02:25:20;;;;;;;6.80;4.50;;;10.30;1.00;;;;;;6265834;23;20228;-83
2024/04/03 02:27:47;;;;;;;5.73;4.40;;;10.40;1.00;;;;;;6261676;22;20421;-83
2024/04/03 02:30:13;;;;;;;5.20;4.70;;;10.40;1.00;;;;;;6270261;23;20356;-83
2024/04/03 02:32:41;;;;;;;6.93;4.60;;;10.40;1.00;;;;;;6271803;23;20421;-83
2024/04/03 02:35:07;;;;;;;8.03;4.70;;;10.30;1.00;;;;;;6267754;23;20380;-84
2024/04/03 02:37:34;;;;;;;8.80;5.27;;;10.40;1.00;;;;;;6256586;22;20401;-84
2024/04/03 02:40:00;;;;;;;6.37;4.40;;;10.40;1.00;;;;;;6253381;23;20430;-84
2024/04/03 02:42:28;;;;;;;7.87;5.27;;;10.40;1.00;;;;;;6254241;23;20376;-84
2024/04/03 02:44:53;;;;;;;6.13;5.47;;;10.30;1.00;;;;;;6253874;23;20396;-84
2024/04/03 02:47:20;;;;;;;7.33;4.73;;;10.40;1.00;;;;;;6252455;22;20408;-84
2024/04/03 02:49:48;;;;;;;6.10;5.50;;;10.40;1.00;;;;;;6253484;23;20185;-84
2024/04/03 02:52:14;;;;;;;7.40;4.77;;;10.40;1.00;;;;;;6253320;23;20482;-84
2024/04/03 02:54:40;;;;;;;7.23;5.13;;;10.40;1.00;;;;;;6252302;23;20440;-84
2024/04/03 02:57:07;;;;;;;8.00;5.13;;;10.40;1.00;;;;;;6252425;23;20398;-84
2024/04/03 02:59:35;;;;;;;5.47;4.93;;;10.40;1.00;;;;;;6252689;22;20403;-83
2024/04/03 03:02:02;;;;;;;6.17;5.50;;;10.40;1.00;;;;;;6253720;23;20431;-84
2024/04/03 03:04:28;;;;;;;8.87;5.50;;;10.30;99.90;;;;;;6252934;23;20380;-84
2024/04/03 03:06:56;;;;;;;5.87;5.27;;;10.40;1.00;;;;;;6252088;23;20383;-83
2024/04/03 03:09:24;;;;;;;6.73;6.13;;;10.40;99.90;;;;;;6253705;22;20431;-83
2024/04/03 03:11:51;;;;;;;6.70;5.60;;;10.40;99.90;;;;;;6252807;23;20786;-84
2024/04/03 03:14:17;;;;;;;8.90;5.77;;;10.40;1.00;;;;;;6254374;23;20409;-84
2024/04/03 03:16:43;;;;;;;7.37;5.13;;;10.40;99.90;;;;;;6253691;23;20908;-84
2024/04/03 03:19:10;;;;;;;5.97;5.43;;;10.40;1.00;;;;;;6254593;22;20400;-84
2024/04/03 03:21:36;;;;;;;6.97;5.83;;;10.40;1.00;;;;;;6261030;23;20422;-84
2024/04/03 03:24:06;;;;;;;6.27;5.13;;;10.40;1.00;;;;;;6266283;23;20405;-83
2024/04/03 03:26:32;;;;;;;7.43;5.90;;;10.40;99.90;;;;;;6267714;23;20170;-83
2024/04/03 03:28:59;;;;;;;6.50;5.57;;;10.40;99.90;;;;;;6270598;22;20413;-84
2024/04/03 03:31:25;;;;;;;8.10;5.60;;;10.40;1.00;;;;;;6268113;23;20194;-84
2024/04/03 03:33:52;;;;;;;6.00;5.40;;;10.40;1.00;;;;;;6260171;23;20391;-84
2024/04/03 03:36:17;;;;;;;9.97;6.27;;;10.40;1.00;;;;;;6259104;23;20179;-84
2024/04/03 03:38:44;;;;;;;7.17;6.50;;;10.40;1.00;;;;;;6259544;22;20444;-82
2024/04/03 03:41:13;;;;;;;7.53;5.80;;;10.40;1.00;;;;;;6259222;23;20397;-84
2024/04/03 03:43:39;;;;;;;8.90;6.00;;;10.30;1.00;;;;;;6254416;23;20413;-84
2024/04/03 03:46:05;;;;;;;9.50;6.73;;;10.30;67.20;;;;;;6254023;23;20404;-84
2024/04/03 03:53:57;;;;;;;8.73;6.97;;;10.20;99.90;;;;;;6267211;23;20371;-84
2024/04/03 03:56:26;;;;;;;8.17;6.40;;;10.20;99.90;;;;;;6258985;23;20400;-83
2024/04/03 03:58:53;;;;;;;7.00;6.30;;;10.20;99.90;;;;;;6257759;22;20433;-84
2024/04/03 04:01:19;;;;;;;11.00;6.70;;;10.10;1.00;;;;;;6258529;23;20402;-84
2024/04/03 04:03:45;;;;;;;6.90;6.20;;;10.10;40.60;;;;;;6261049;23;20881;-83
2024/04/03 04:06:12;;;;;;;11.77;5.73;;;10.10;99.90;;;;;;6261119;23;20494;-84
2024/04/03 04:08:38;;;;;;;12.17;7.43;;;10.00;1.00;;;;;;6261225;22;20407;-83
2024/04/03 04:11:05;;;;;;;9.50;6.97;;;9.90;7.40;;;;;;6258791;23;20894;-83
2024/04/03 04:13:32;;;;;;;8.47;7.03;;;9.80;1.80;;;;;;6257850;23;20439;-83
2024/04/03 04:16:00;;;;;;;10.30;8.37;;;9.80;1.00;;;;;;6258262;23;20384;-83
2024/04/03 04:18:26;;;;;;;16.87;9.80;;;9.70;99.90;;;;;;6257626;22;20418;-85
2024/04/03 04:20:58;;;;;;;12.57;9.00;;;9.60;99.90;;;;;;6258174;23;20372;-84
2024/04/03 04:23:24;;;;;;;8.20;7.13;;;9.30;99.90;;;;;;6253718;23;20480;-84
2024/04/03 04:25:55;;;;;;;9.73;7.50;;;9.30;99.90;;;;;;6252159;23;20376;-83
2024/04/03 04:28:23;;;;;;;10.97;7.53;;;9.30;99.90;;;;;;6257196;22;20431;-83
2024/04/03 04:31:00;;;;;;;9.20;8.30;;;9.20;99.90;;;;;;6285563;22;20415;-83
2024/04/03 04:33:28;;;;;;;9.93;7.80;;;9.20;99.90;;;;;;6284073;22;20390;-84
2024/04/03 04:35:55;;;;;;;8.30;6.63;;;9.20;99.90;;;;;;6284018;22;20375;-84
2024/04/03 04:38:22;;;;;;;9.80;8.03;;;9.20;99.90;;;;;;6283304;22;20928;-83
2024/04/03 04:40:55;;;;;;;8.97;6.87;;;9.20;99.90;;;;;;6285875;22;20428;-83
2024/04/03 04:43:22;;;;;;;10.73;6.20;;;9.20;99.90;;;;;;6290128;22;20375;-82
2024/04/03 04:45:54;;;;;;;8.23;6.00;;;9.20;99.90;;;;;;6286214;22;20435;-81
2024/04/03 04:48:23;;;;;;;6.80;6.07;;;9.20;99.90;;;;;;6300989;22;20480;-81
2024/04/03 04:50:51;;;;;;;6.23;5.60;;;9.20;99.90;;;;;;6301063;22;20500;-81
2024/04/03 04:53:18;;;;;;;7.47;5.70;;;9.10;99.90;;;;;;6301039;22;20383;-81
2024/04/03 04:55:54;;;;;;;7.33;5.97;;;9.20;99.90;;;;;;6290632;22;20379;-83
2024/04/03 04:58:22;;;;;;;7.30;5.83;;;9.20;99.90;;;;;;6288870;22;20391;-83
2024/04/03 05:00:49;;;;;;;6.57;5.50;;;9.20;99.90;;;;;;6301774;22;20379;-81
2024/04/03 05:03:16;;;;;;;4.93;4.20;;;9.20;99.90;;;;;;6299839;22;20379;-81
2024/04/03 05:05:43;;;;;;;6.47;5.60;;;9.20;99.90;;;;;;6287714;22;20382;-83
2024/04/03 05:08:10;;;;;;;7.27;5.73;;;9.10;99.90;;;;;;6284815;22;20402;-83
2024/04/03 05:10:37;;;;;;;5.50;5.00;;;9.10;99.90;;;;;;6287945;22;20462;-83
2024/04/03 05:13:04;;;;;;;4.90;4.40;;;9.10;99.90;;;;;;6287617;22;20394;-83
2024/04/03 05:15:30;;;;;;;7.00;6.10;;;9.10;99.90;;;;;;6290140;22;20679;-83
2024/04/03 05:17:59;;;;;;;22.53;14.57;;;9.20;99.90;;;;;;6287888;22;20379;-83
2024/04/03 05:20:25;;;;;;;8.10;5.90;;;9.20;99.90;;;;;;6287029;22;20721;-83
2024/04/03 05:22:53;;;;;;;11.23;6.17;;;9.30;99.90;;;;;;6286964;22;20375;-83
2024/04/03 05:25:19;;;;;;;6.10;4.70;;;9.30;99.90;;;;;;6286410;22;20384;-84
2024/04/03 05:27:45;;;;;;;6.73;6.03;;;9.30;99.90;;;;;;6288725;22;20401;-84
2024/04/03 05:30:12;;;;;;;15.87;5.20;;;9.30;99.90;;;;;;6288092;22;20406;-84
2024/04/03 05:32:39;;;;;;;7.63;5.67;;;9.40;99.90;;;;;;6301654;22;20437;-84
2024/04/03 05:35:05;;;;;;;13.60;5.00;;;9.40;99.90;;;;;;6303841;22;20379;-84
2024/04/03 05:37:32;;;;;;;5.67;4.90;;;9.40;99.90;;;;;;6302024;22;20363;-83
2024/04/03 05:39:59;;;;;;;6.37;4.90;;;9.40;99.90;;;;;;6306480;22;20483;-84
2024/04/03 05:42:27;;;;;;;7.80;4.73;;;9.40;99.90;;;;;;6306284;22;20388;-81
2024/04/03 05:44:52;;;;;;;10.13;5.07;;;9.50;99.90;;;;;;6295319;22;20458;-84
2024/04/03 05:47:19;;;;;;;10.20;4.47;;;9.50;99.90;;;;;;6288840;22;20406;-84
2024/04/03 05:49:45;;;;;;;6.63;4.60;;;9.50;99.90;;;;;;6293888;22;20460;-84
2024/04/03 05:52:12;;;;;;;6.73;4.83;;;9.50;99.90;;;;;;6294873;22;20409;-83
2024/04/03 05:54:41;;;;;;;5.40;4.43;;;9.50;99.90;;;;;;6285819;22;20173;-83
2024/04/03 05:57:09;;;;;;;4.83;4.13;;;9.60;99.90;;;;;;6282499;22;20383;-82
2024/04/03 05:59:35;;;;;;;6.90;5.30;;;9.60;99.90;;;;;;6283881;22;20454;-83
2024/04/03 06:02:02;;;;;;;9.63;5.27;;;9.60;99.90;;;;;;6285471;22;20379;-82
2024/04/03 06:04:28;;;;;;;5.30;4.50;;;9.70;99.90;;;;;;6289489;22;20404;-82
2024/04/03 06:06:56;;;;;;;6.53;4.23;;;9.70;99.90;;;;;;6286440;22;20740;-82
2024/04/03 06:09:22;;;;;;;6.00;4.50;;;9.80;99.90;;;;;;6287907;22;20198;-82
2024/04/03 06:11:49;;;;;;;8.83;4.70;;;9.90;99.90;;;;;;6289076;22;20429;-83
2024/04/03 06:14:16;;;;;;;6.23;4.70;;;9.90;99.90;;;;;;6289506;22;20386;-81
2024/04/03 06:16:43;;;;;;;7.40;3.73;;;10.00;99.90;;;;;;6297646;22;20375;-82
2024/04/03 06:19:12;;;;;;;6.23;4.87;;;10.00;99.90;;;;;;6292398;22;20405;-83
2024/04/03 06:21:39;;;;;;;7.40;4.30;;;10.00;99.90;;;;;;6284195;22;20371;-83
2024/04/03 06:24:06;;;;;;;6.63;4.90;;;10.10;99.90;;;;;;6283613;22;20405;-83
2024/04/03 06:26:33;;;;;;;4.70;3.67;;;9.80;99.90;;;;;;6293044;22;20386;-81
2024/04/03 06:28:59;;;;;;;4.23;3.83;;;9.90;99.90;;;;;;6293727;22;20458;-82
2024/04/03 06:31:27;;;;;;;4.60;4.13;;;9.80;99.90;;;;;;6292851;22;20411;-82
2024/04/03 06:33:56;;;;;;;7.70;4.57;;;9.80;99.90;;;;;;6297458;22;20400;-83
2024/04/03 06:36:23;;;;;;;9.80;5.30;;;9.90;99.90;;;;;;6306185;22;20393;-81
2024/04/03 06:38:49;;;;;;;6.90;4.40;;;9.90;99.90;;;;;;6306553;22;20415;-82
2024/04/03 06:41:16;;;;;;;4.70;3.80;;;10.10;99.90;;;;;;6304786;22;20382;-83
2024/04/03 06:43:42;;;;;;;6.53;4.20;;;10.10;99.90;;;;;;6300654;22;20398;-81
2024/04/03 06:46:09;;;;;;;4.70;4.03;;;10.10;99.90;;;;;;6295597;22;20400;-82
2024/04/03 06:48:36;;;;;;;5.00;3.90;;;10.10;99.90;;;;;;6298573;22;20490;-80
2024/04/03 06:51:04;;;;;;;7.87;4.10;;;10.20;99.90;;;;;;6301001;22;20412;-82
2024/04/03 06:53:30;;;;;;;4.93;4.20;;;10.20;99.90;;;;;;6285959;22;20724;-83
2024/04/03 06:55:57;;;;;;;5.40;4.83;;;10.20;99.90;;;;;;6291726;22;20403;-83
2024/04/03 06:58:24;;;;;;;6.37;4.10;;;10.20;99.90;;;;;;6300370;22;20420;-82
2024/04/03 07:00:51;;;;;;;5.60;4.43;;;10.10;81.70;;;;;;6293081;22;20374;-83
2024/04/03 07:03:17;;;;;;;4.83;3.90;;;10.10;90.80;;;;;;6288878;22;20402;-84
2024/04/03 07:05:46;;;;;;;5.90;4.37;;;10.20;53.20;;;;;;6286913;22;20379;-83
2024/04/03 07:08:12;;;;;;;5.40;4.30;;;10.20;25.50;;;;;;6285230;22;20445;-83
2024/04/03 07:10:40;;;;;;;4.47;4.00;;;10.10;1.00;;;;;;6283349;22;20371;-82
2024/04/03 07:13:06;;;;;;;6.30;3.83;;;10.20;3.00;;;;;;6287153;22;20443;-82
2024/04/03 07:15:34;;;;;;;7.23;4.50;;;10.30;16.20;;;;;;6286876;22;20400;-83
2024/04/03 07:18:00;;;;;;;5.67;3.77;;;10.30;1.00;;;;;;6284262;22;20399;-83
2024/04/03 07:20:28;;;;;;;5.50;4.23;;;10.30;1.00;;;;;;6282873;22;20712;-82
2024/04/03 07:22:57;;;;;;;5.37;3.93;;;10.20;1.00;;;;;;6282100;22;20376;-82
2024/04/03 07:25:25;;;;;;;7.13;4.37;;;10.30;1.00;;;;;;6282082;22;20383;-82
2024/04/03 07:27:52;;;;;;;9.20;4.60;;;10.30;1.00;;;;;;6289150;22;20877;-83
2024/04/03 07:30:19;;;;;;;7.70;4.87;;;10.40;1.00;;;;;;6291835;22;20397;-82
2024/04/03 07:32:46;;;;;;;6.70;4.50;;;10.50;1.00;;;;;;6286745;22;20419;-82
2024/04/03 07:35:13;;;;;;;7.17;4.20;;;10.40;1.00;;;;;;6291612;22;20450;-81
2024/04/03 07:37:41;;;;;;;4.23;3.83;;;10.40;1.00;;;;;;6298672;22;20415;-82
2024/04/03 07:40:10;;;;;;;5.10;4.40;;;10.50;1.00;;;;;;6300059;22;20432;-83
2024/04/03 07:42:38;;;;;;;5.20;4.70;;;10.50;1.00;;;;;;6291773;22;20375;-83
2024/04/03 07:45:06;;;;;;;7.80;5.03;;;10.50;1.00;;;;;;6285616;22;20379;-82
2024/04/03 07:47:33;;;;;;;7.10;4.53;;;10.50;1.00;;;;;;6283340;22;20400;-83
2024/04/03 07:50:00;;;;;;;5.37;4.63;;;10.60;1.00;;;;;;6282166;22;20415;-83
2024/04/03 07:52:26;;;;;;;4.63;4.20;;;10.50;1.00;;;;;;6284628;22;20436;-82
2024/04/03 07:54:53;;;;;;;4.90;4.40;;;10.60;1.00;;;;;;6284141;22;20400;-81
2024/04/03 07:57:21;;;;;;;6.67;4.90;;;10.70;1.00;;;;;;6281575;22;20899;-81
2024/04/03 07:59:49;;;;;;;4.63;3.93;;;10.70;1.00;;;;;;6280546;22;20428;-82
2024/04/03 08:02:15;;;;;;;15.93;10.73;;;10.80;1.00;;;;;;6282057;22;20400;-83
2024/04/03 08:04:42;;;;;;;5.50;4.60;;;10.80;1.00;;;;;;6281760;22;20404;-83
2024/04/03 08:07:08;;;;;;;5.87;4.50;;;11.00;1.00;;;;;;6282587;22;20455;-83
2024/04/03 08:09:36;;;;;;;7.87;5.07;;;10.80;1.00;;;;;;6282505;22;20395;-83
2024/04/03 08:12:02;;;;;;;5.70;4.80;;;10.80;1.00;;;;;;6281322;22;20417;-83
2024/04/03 08:14:30;;;;;;;6.37;5.27;;;10.80;1.00;;;;;;6281899;22;20469;-83
2024/04/03 08:16:58;;;;;;;5.53;4.97;;;10.70;1.00;;;;;;6281816;22;20428;-83
2024/04/03 08:19:25;;;;;;;7.33;5.90;;;10.80;1.00;;;;;;6283768;22;20418;-83
2024/04/03 08:21:51;;;;;;;10.40;5.97;;;10.80;1.00;;;;;;6282643;22;20407;-83
2024/04/03 08:24:18;;;;;;;7.13;6.43;;;10.70;1.00;;;;;;6281308;22;20385;-82
2024/04/03 08:26:45;;;;;;;6.50;5.30;;;10.60;1.00;;;;;;6282982;22;20375;-82
2024/04/03 08:29:13;;;;;;;6.93;6.23;;;10.60;1.00;;;;;;6285228;22;20539;-83
2024/04/03 08:31:40;;;;;;;7.77;6.10;;;10.60;1.00;;;;;;6282723;22;20756;-82
2024/04/03 08:34:07;;;;;;;8.20;6.20;;;10.40;1.00;;;;;;6282049;22;20386;-82
2024/04/03 08:36:34;;;;;;;9.13;7.37;;;10.60;1.00;;;;;;6283205;22;20379;-81
2024/04/03 08:39:00;;;;;;;7.30;6.57;;;10.60;99.90;;;;;;6281854;22;20449;-82
2024/04/03 08:41:26;;;;;;;9.03;7.47;;;10.50;99.90;;;;;;6281622;22;20434;-84
2024/04/03 08:43:55;;;;;;;7.63;6.83;;;10.80;1.00;;;;;;6288681;22;20405;-84
2024/04/03 08:46:21;;;;;;;7.97;5.90;;;11.00;1.00;;;;;;6293777;22;20181;-81
2024/04/03 08:48:50;;;;;;;6.93;6.10;;;11.20;99.90;;;;;;6302635;22;20403;-81
2024/04/03 08:51:18;;;;;;;7.60;6.40;;;11.30;99.90;;;;;;6300388;22;20396;-81
2024/04/03 08:53:45;;;;;;;10.40;6.57;;;11.00;85.10;;;;;;6290763;22;20382;-82
2024/04/03 08:56:15;;;;;;;8.47;5.97;;;11.20;1.00;;;;;;6284204;22;20408;-82
2024/04/03 08:58:42;;;;;;;6.90;6.07;;;11.30;99.90;;;;;;6289656;22;20488;-82
2024/04/03 09:01:08;;;;;;;8.03;6.73;;;11.30;99.10;;;;;;6302018;22;20431;-82
2024/04/03 09:03:35;;;;;;;6.53;5.93;;;11.20;99.20;;;;;;6305114;22;20463;-82
2024/04/03 09:06:03;;;;;;;8.73;6.13;;;11.50;68.50;;;;;;6304324;22;20404;-82
2024/04/03 09:08:41;;;;;;;5.73;5.13;;;11.50;1.00;;;;;;6301990;22;20428;-83
2024/04/03 09:11:07;;;;;;;7.17;5.13;;;11.70;1.00;;;;;;6301327;22;20435;-82
2024/04/03 09:13:34;;;;;;;5.07;4.50;;;11.90;99.90;;;;;;6288842;22;20439;-82
2024/04/03 09:16:01;;;;;;;6.63;5.00;;;11.90;99.90;;;;;;6286682;22;20404;-84
2024/04/03 09:18:29;;;;;;;5.80;4.40;;;12.00;99.90;;;;;;6284263;22;20398;-83
2024/04/03 09:20:55;;;;;;;5.47;4.37;;;12.00;99.90;;;;;;6284638;22;20371;-81
2024/04/03 09:23:24;;;;;;;9.10;4.30;;;12.10;99.90;;;;;;6284090;22;20377;-83
2024/04/03 09:25:49;;;;;;;5.30;4.80;;;12.00;92.70;;;;;;6287477;22;20431;-83
2024/04/03 09:28:16;;;;;;;5.40;4.90;;;12.10;74.60;;;;;;6283668;22;20399;-83
2024/04/03 09:30:47;;;;;;;4.70;4.30;;;12.10;16.90;;;;;;6284100;22;20201;-84
2024/04/03 09:33:16;;;;;;;8.40;5.00;;;12.20;3.80;;;;;;6283516;22;20427;-83
2024/04/03 09:35:43;;;;;;;9.20;5.43;;;12.40;99.90;;;;;;6284130;22;20383;-83
2024/04/03 09:38:11;;;;;;;10.33;6.90;;;12.20;1.00;;;;;;6285955;22;20449;-83
2024/04/03 09:40:41;;;;;;;7.03;5.70;;;12.40;1.00;;;;;;6284712;22;20374;-82
2024/04/03 09:43:13;;;;;;;5.30;4.80;;;12.30;1.00;;;;;;6284451;22;20416;-81
2024/04/03 09:45:39;;;;;;;8.13;5.70;;;12.30;1.00;;;;;;6284354;22;20377;-82
2024/04/03 09:48:07;;;;;;;6.60;4.90;;;12.40;1.00;;;;;;6283478;22;20416;-82
2024/04/03 09:50:36;;;;;;;7.33;4.57;;;12.60;1.00;;;;;;6284289;22;20404;-81
2024/04/03 09:53:06;;;;;;;6.53;5.77;;;12.80;1.00;;;;;;6285994;22;20440;-82
2024/04/03 09:55:32;;;;;;;7.03;4.90;;;12.70;1.00;;;;;;6302497;22;20480;-81
2024/04/03 09:58:02;;;;;;;6.60;5.30;;;12.90;1.00;;;;;;6302616;22;20404;-81
2024/04/03 10:00:28;;;;;;;9.37;5.60;;;12.90;1.00;;;;;;6298865;22;20497;-81
2024/04/03 10:02:55;;;;;;;5.83;5.03;;;12.70;1.00;;;;;;6298528;22;20375;-80
2024/04/03 10:05:33;;;;;;;7.50;5.47;;;12.70;1.00;;;;;;6285801;22;20466;-83
2024/04/03 10:08:04;;;;;;;7.10;5.83;;;12.90;1.00;;;;;;6286350;22;20373;-83
2024/04/03 10:10:30;;;;;;;9.37;5.13;;;13.00;1.00;;;;;;6305982;22;20403;-81
2024/04/03 10:13:02;;;;;;;7.83;5.40;;;13.00;1.00;;;;;;6300557;22;20436;-83
2024/04/03 10:15:28;;;;;;;7.20;5.70;;;13.10;1.00;;;;;;6289117;22;20409;-82
2024/04/03 10:18:02;;;;;;;6.80;5.50;;;13.10;1.00;;;;;;6294372;22;20751;-82
2024/04/03 10:20:38;;;;;;;6.10;4.70;;;13.10;1.00;;;;;;6287282;22;20359;-83
2024/04/03 10:23:08;;;;;;;5.80;5.30;;;13.10;1.00;;;;;;6283435;22;20371;-83
2024/04/03 10:25:35;;;;;;;7.10;5.30;;;13.20;1.00;;;;;;6284296;22;20400;-83
2024/04/03 10:30:41;;;;;;;7.77;5.93;;;13.40;1.00;;;;;;6283226;22;20404;-81
2024/04/03 10:33:08;;;;;;;5.40;4.90;;;13.60;1.00;;;;;;6284831;22;20972;-81
2024/04/03 10:35:35;;;;;;;9.67;5.07;;;13.10;1.00;;;;;;6289056;22;20383;-81
2024/04/03 10:38:01;;;;;;;4.70;4.30;;;13.10;1.00;;;;;;6285808;22;20929;-82
2024/04/03 10:40:30;;;;;;;7.53;4.80;;;13.10;1.00;;;;;;6286741;22;20496;-83
2024/04/03 10:42:56;;;;;;;7.67;4.90;;;13.10;1.00;;;;;;6291830;22;20398;-82
2024/04/03 10:45:23;;;;;;;6.00;5.03;;;13.20;1.00;;;;;;6295439;22;20400;-81
2024/04/03 10:47:50;;;;;;;6.67;5.47;;;13.00;1.00;;;;;;6296064;22;20404;-82
2024/04/03 10:50:18;;;;;;;6.43;4.90;;;13.10;1.00;;;;;;6297565;22;20403;-82
2024/04/03 10:52:44;;;;;;;7.63;4.40;;;12.80;1.00;;;;;;6284347;22;20435;-81
2024/04/03 10:55:12;;;;;;;5.33;4.63;;;12.90;1.00;;;;;;6287383;22;20404;-83
2024/04/03 10:57:39;;;;;;;13.53;5.23;;;13.00;1.00;;;;;;6283623;22;20419;-81
2024/04/03 11:00:07;;;;;;;6.40;4.97;;;12.80;1.00;;;;;;6284022;22;20450;-82
2024/04/03 11:02:33;;;;;;;12.67;5.70;;;12.70;1.00;;;;;;6291561;22;20459;-80
2024/04/03 11:05:01;;;;;;;6.20;5.60;;;12.70;1.00;;;;;;6293536;22;20407;-81
2024/04/03 11:07:28;;;;;;;5.87;4.60;;;12.50;1.00;;;;;;6297942;22;20184;-80
2024/04/03 11:09:55;;;;;;;9.87;5.70;;;12.30;1.00;;;;;;6295311;22;20428;-81
2024/04/03 11:12:21;;;;;;;6.53;5.83;;;12.30;1.00;;;;;;6295892;22;20436;-81
2024/04/03 11:14:56;;;;;;;8.20;5.33;;;12.40;1.00;;;;;;6289742;22;20375;-83
2024/04/03 11:17:22;;;;;;;7.57;5.30;;;12.30;1.00;;;;;;6286370;22;20634;-81
2024/04/03 11:19:49;;;;;;;9.23;4.57;;;12.40;1.00;;;;;;6287554;22;20421;-83
2024/04/03 11:22:16;;;;;;;7.97;5.40;;;12.30;1.00;;;;;;6285727;22;20905;-82
2024/04/03 11:24:43;;;;;;;9.33;5.80;;;12.30;1.00;;;;;;6289930;22;20464;-80
2024/04/03 11:27:09;;;;;;;9.70;6.60;;;12.30;1.00;;;;;;6302079;22;20396;-81
2024/04/03 11:29:38;;;;;;;9.70;5.10;;;12.30;1.00;;;;;;6293781;22;20432;-82
2024/04/03 11:32:05;;;;;;;10.27;5.77;;;12.40;1.00;;;;;;6284095;22;20415;-82
2024/04/03 11:34:33;;;;;;;7.13;5.37;;;12.40;49.90;;;;;;6283784;22;20928;-82
2024/04/03 11:36:59;;;;;;;6.23;4.77;;;12.50;1.00;;;;;;6282507;22;20382;-82
2024/04/03 11:39:30;;;;;;;6.20;5.33;;;12.30;85.60;;;;;;6282658;22;20408;-82
2024/04/03 11:41:57;;;;;;;6.00;5.40;;;12.30;99.50;;;;;;6282746;22;20384;-82
2024/04/03 11:44:24;;;;;;;5.93;5.10;;;12.10;99.90;;;;;;6282639;22;20415;-83
2024/04/03 11:46:50;;;;;;;6.00;5.40;;;12.00;99.90;;;;;;6283137;22;20379;-83
2024/04/03 11:49:17;;;;;;;7.50;6.37;;;11.90;1.00;;;;;;6285030;22;20496;-83
2024/04/03 11:51:43;;;;;;;8.73;7.83;;;11.90;99.90;;;;;;6296777;22;20379;-81
2024/04/03 11:54:10;;;;;;;13.43;6.73;;;11.90;99.90;;;;;;6295885;22;20410;-81
2024/04/03 11:56:37;;;;;;;7.00;5.73;;;11.90;99.90;;;;;;6294691;22;20459;-80
2024/04/03 11:59:04;;;;;;;8.83;6.37;;;11.90;99.90;;;;;;6290204;22;20451;-81
2024/04/03 12:01:31;;;;;;;9.87;6.07;;;11.90;99.90;;;;;;6291234;22;20461;-81
2024/04/03 12:03:56;;;;;;;9.83;6.70;;;11.90;99.90;;;;;;6294135;22;20386;-81
2024/04/03 12:06:24;;;;;;;7.47;6.70;;;11.90;1.00;;;;;;6291837;22;20404;-80
2024/04/03 12:08:50;;;;;;;9.60;6.67;;;11.90;99.90;;;;;;6290513;22;20480;-81
2024/04/03 12:11:17;;;;;;;9.57;6.83;;;11.90;1.00;;;;;;6293034;22;20484;-81
2024/04/03 12:13:45;;;;;;;10.60;6.63;;;11.80;99.90;;;;;;6291766;22;20436;-81
2024/04/03 12:16:13;;;;;;;7.77;6.97;;;11.80;1.00;;;;;;6289654;22;20412;-81
2024/04/03 12:18:49;;;;;;;9.70;7.23;;;11.80;1.00;;;;;;6287745;22;20760;-83
2024/04/03 12:21:17;;;;;;;8.80;6.83;;;11.90;99.90;;;;;;6283795;22;20363;-83
2024/04/03 12:23:44;;;;;;;11.30;7.57;;;11.90;99.90;;;;;;6283788;22;20408;-82
2024/04/03 12:26:11;;;;;;;10.53;8.50;;;11.90;1.00;;;;;;6282711;22;20414;-82
2024/04/03 12:28:37;;;;;;;10.13;7.47;;;11.80;99.90;;;;;;6286564;22;20470;-82
2024/04/03 12:31:06;;;;;;;9.00;7.47;;;11.70;1.00;;;;;;6285871;22;20404;-83
2024/04/03 12:33:32;;;;;;;8.03;7.20;;;11.70;1.00;;;;;;6293499;22;20466;-83
2024/04/03 12:35:59;;;;;;;9.17;7.70;;;11.70;1.00;;;;;;6304411;22;20400;-83
2024/04/03 12:38:26;;;;;;;12.07;8.90;;;11.80;28.30;;;;;;6304063;22;20378;-81
2024/04/03 12:40:54;;;;;;;10.53;7.77;;;11.90;95.60;;;;;;6304251;22;20368;-82
2024/04/03 12:43:20;;;;;;;9.53;7.80;;;11.80;1.00;;;;;;6287563;22;20375;-82
2024/04/03 12:45:55;;;;;;;14.80;8.53;;;11.90;1.00;;;;;;6293828;22;20407;-82
2024/04/03 12:48:23;;;;;;;17.03;8.63;;;12.00;1.00;;;;;;6290500;22;20371;-82
2024/04/03 12:50:50;;;;;;;11.40;8.70;;;12.00;99.90;;;;;;6285339;22;20379;-83
2024/04/03 12:53:15;;;;;;;10.87;8.13;;;11.90;1.00;;;;;;6282710;22;21004;-82
2024/04/03 12:55:43;;;;;;;8.27;7.50;;;11.80;99.90;;;;;;6296328;22;20379;-80
2024/04/03 12:58:09;;;;;;;14.80;8.70;;;11.90;1.00;;;;;;6287360;22;20404;-82
2024/04/03 13:00:36;;;;;;;10.20;7.80;;;11.90;99.90;;;;;;6286108;22;20531;-82